Time;durP1;ratioP1;P1;durP2;ratioP2;P2;SDS_P1;SDS_P2;PMS_P1;PMS_P2;Temp;Humidity;BMP_temperature;BMP_pressure;BME280_temperature;BME280_humidity;BME280_pressure;Samples;Min_cycle;Max_cycle;Signal;HPM_P1;HPM_P2
2022/04/09 00:00:23;;;;;;;;;9.25;6.75;;;;;10.46;59.63;100731.50;5061444;28;62158;-77
2022/04/09 00:02:48;;;;;;;;;5.75;5.50;;;;;10.48;59.76;100735.09;5061315;28;62020;-77
2022/04/09 00:05:15;;;;;;;;;9.00;7.25;;;;;10.46;59.40;100737.63;5061992;28;62172;-77
2022/04/09 00:07:41;;;;;;;;;7.00;4.00;;;;;10.51;59.59;100735.22;5076344;28;63673;-77
2022/04/09 00:10:08;;;;;;;;;4.75;4.00;;;;;10.61;59.38;100743.56;5061699;28;61947;-77
2022/04/09 00:12:34;;;;;;;;;6.00;5.00;;;;;10.61;59.05;100742.66;5061122;28;62306;-77
2022/04/09 00:15:00;;;;;;;;;5.25;5.25;;;;;10.60;59.21;100741.78;5061188;28;61858;-77
2022/04/09 00:17:27;;;;;;;;;6.50;5.00;;;;;10.68;58.89;100749.97;5060075;28;61846;-77
2022/04/09 00:19:55;;;;;;;;;5.75;5.75;;;;;10.70;58.89;100750.03;5070752;28;61930;-77
2022/04/09 00:22:22;;;;;;;;;4.50;4.50;;;;;10.70;58.88;100745.69;5081311;28;61855;-77
2022/04/09 00:24:47;;;;;;;;;6.00;5.00;;;;;10.73;58.40;100751.06;5081488;28;61796;-76
2022/04/09 00:27:13;;;;;;;;;8.00;6.25;;;;;10.75;58.46;100753.75;5080976;28;61920;-77
2022/04/09 00:29:39;;;;;;;;;3.50;3.50;;;;;10.77;58.66;100757.34;5081411;28;61997;-77
2022/04/09 00:32:05;;;;;;;;;6.00;6.00;;;;;10.72;58.40;100761.50;5081748;28;61825;-77
2022/04/09 00:34:30;;;;;;;;;6.75;5.00;;;;;10.66;58.72;100759.50;5081686;28;61952;-77
2022/04/09 00:36:56;;;;;;;;;5.25;5.00;;;;;10.67;58.97;100768.25;5081194;28;62031;-77
2022/04/09 00:39:21;;;;;;;;;8.50;6.00;;;;;10.62;58.98;100765.44;5081949;28;61812;-77
2022/04/09 00:41:47;;;;;;;;;6.25;6.25;;;;;10.63;59.01;100768.16;5085094;28;62409;-77
2022/04/09 00:44:20;;;;;;;;;7.00;5.00;;;;;10.69;58.70;100772.78;5101028;27;61776;-77
2022/04/09 00:46:46;;;;;;;;;5.75;4.50;;;;;10.59;58.24;100783.69;5084344;28;62031;-77
2022/04/09 00:49:13;;;;;;;;;5.00;5.00;;;;;10.36;59.27;100786.19;5085069;28;61700;-77
2022/04/09 00:51:42;;;;;;;;;5.00;5.00;;;;;10.38;59.12;100787.16;5085009;28;61822;-77
2022/04/09 00:54:11;;;;;;;;;5.50;5.50;;;;;10.37;59.40;100785.38;5085155;28;61755;-77
2022/04/09 00:56:38;;;;;;;;;6.00;5.00;;;;;10.43;59.59;100789.97;5084053;28;61856;-77
2022/04/09 00:59:06;;;;;;;;;7.00;7.00;;;;;10.38;59.53;100792.41;5084918;28;61730;-77
2022/04/09 01:01:36;;;;;;;;;6.00;6.00;;;;;10.45;59.70;100796.19;5099941;27;61925;-77
2022/04/09 01:04:06;;;;;;;;;4.75;4.50;;;;;10.47;59.22;100797.16;5085774;27;61920;-77
2022/04/09 01:06:35;;;;;;;;;5.00;5.00;;;;;10.46;59.65;100803.25;5084940;28;62494;-77
2022/04/09 01:09:02;;;;;;;;;2.00;2.00;;;;;10.35;59.15;100808.00;5084253;28;61980;-77
2022/04/09 01:11:28;;;;;;;;;1.75;1.75;;;;;10.33;59.44;100812.28;5084631;28;61964;-77
2022/04/09 01:13:53;;;;;;;;;2.50;2.50;;;;;10.29;60.03;100815.59;5084905;28;61914;-77
2022/04/09 01:16:19;;;;;;;;;3.00;3.00;;;;;10.41;60.04;100815.25;5083732;28;61820;-77
2022/04/09 01:18:44;;;;;;;;;7.00;5.00;;;;;10.48;59.79;100814.72;5084206;28;61734;-77
2022/04/09 01:21:10;;;;;;;;;6.00;5.25;;;;;10.59;59.67;100812.56;5084620;28;61890;-77
2022/04/09 01:23:36;;;;;;;;;2.00;2.00;;;;;10.66;59.85;100814.63;5083319;28;62140;-77
2022/04/09 01:26:04;;;;;;;;;6.00;2.75;;;;;10.64;59.03;100819.78;5083398;27;61652;-77
2022/04/09 01:28:31;;;;;;;;;2.00;2.00;;;;;10.68;58.99;100822.56;5084202;27;61844;-77
2022/04/09 01:30:57;;;;;;;;;2.00;2.00;;;;;10.67;59.01;100831.25;5084216;27;62146;-77
2022/04/09 01:33:23;;;;;;;;;3.00;1.25;;;;;10.69;58.78;100837.47;5084581;27;61762;-77
2022/04/09 01:35:49;;;;;;;;;2.75;1.00;;;;;10.68;58.50;100841.84;5083714;27;61714;-77
2022/04/09 01:38:16;;;;;;;;;5.50;3.00;;;;;10.67;58.45;100850.56;5084781;27;61826;-76
2022/04/09 01:40:41;;;;;;;;;2.00;2.00;;;;;10.57;58.67;100857.13;5082666;28;61943;-77
2022/04/09 01:43:07;;;;;;;;;2.75;2.75;;;;;10.64;58.71;100858.28;5084182;27;61776;-77
2022/04/09 01:45:34;;;;;;;;;1.00;0.00;;;;;10.70;58.89;100850.69;5082138;28;63774;-76
2022/04/09 01:48:00;;;;;;;;;3.50;3.00;;;;;10.78;58.91;100864.16;5082898;28;61825;-77
2022/04/09 01:50:32;;;;;;;;;2.00;2.00;;;;;10.69;59.29;100859.41;5083731;27;61774;-77
2022/04/09 01:52:58;;;;;;;;;3.50;3.00;;;;;10.53;60.39;100867.41;5084345;27;61792;-77
2022/04/09 01:55:23;;;;;;;;;4.00;3.50;;;;;10.44;62.84;100866.16;5083626;27;62266;-77
2022/04/09 01:57:49;;;;;;;;;3.00;1.75;;;;;10.31;62.34;100863.78;5083678;27;62261;-77
2022/04/09 02:00:16;;;;;;;;;5.00;3.00;;;;;10.17;63.01;100870.97;5082214;28;61817;-77
2022/04/09 02:02:43;;;;;;;;;7.00;3.00;;;;;10.20;63.56;100870.22;5084049;27;61866;-77
2022/04/09 02:05:13;;;;;;;;;2.75;2.75;;;;;10.24;63.19;100859.94;5083473;27;61710;-76
2022/04/09 02:07:39;;;;;;;;;3.25;3.25;;;;;10.25;62.60;100855.59;5082715;28;61923;-77
2022/04/09 02:10:06;;;;;;;;;5.25;4.50;;;;;10.32;62.73;100860.31;5083794;28;61840;-77
2022/04/09 02:12:32;;;;;;;;;9.00;6.50;;;;;10.42;64.16;100862.56;5082552;27;61943;-77
2022/04/09 02:15:04;;;;;;;;;9.50;5.25;;;;;10.52;64.26;100861.25;5082589;27;61844;-76
2022/04/09 02:17:29;;;;;;;;;7.25;6.00;;;;;10.60;64.87;100856.34;5083608;27;62427;-77
2022/04/09 02:19:55;;;;;;;;;10.00;5.50;;;;;10.69;65.01;100853.22;5083073;27;62122;-77
2022/04/09 02:22:20;;;;;;;;;6.00;3.00;;;;;10.77;64.88;100854.47;5083990;28;61847;-77
2022/04/09 02:24:49;;;;;;;;;5.50;5.50;;;;;10.80;64.99;100858.16;5082739;28;62575;-77
2022/04/09 02:27:14;;;;;;;;;5.25;5.25;;;;;10.81;64.33;100862.56;5083138;28;61734;-77
2022/04/09 02:29:39;;;;;;;;;8.75;6.75;;;;;10.82;64.26;100861.75;5099107;27;62149;-76
2022/04/09 02:32:05;;;;;;;;;5.50;3.50;;;;;10.83;64.59;100871.41;5083380;28;61932;-77
2022/04/09 02:34:31;;;;;;;;;9.00;9.00;;;;;10.81;63.43;100874.78;5098748;27;63773;-77
2022/04/09 02:36:56;;;;;;;;;7.00;7.00;;;;;10.82;63.95;100864.38;5098801;27;61757;-77
2022/04/09 02:39:22;;;;;;;;;6.75;6.75;;;;;10.83;63.98;100876.66;5083102;28;62197;-77
2022/04/09 02:41:53;;;;;;;;;5.75;4.50;;;;;10.87;64.17;100888.19;5083218;28;61847;-77
2022/04/09 02:44:19;;;;;;;;;11.75;7.50;;;;;10.85;63.60;100893.38;5082361;28;62508;-77
2022/04/09 02:46:47;;;;;;;;;9.75;8.00;;;;;10.90;62.58;100901.47;5082949;28;62199;-77
2022/04/09 02:49:12;;;;;;;;;15.00;10.00;;;;;10.87;62.19;100893.47;5083131;28;62033;-77
2022/04/09 02:51:38;;;;;;;;;7.00;7.00;;;;;10.94;63.43;100886.75;5083330;28;61830;-77
2022/04/09 02:54:03;;;;;;;;;10.00;9.50;;;;;10.95;63.45;100891.19;5097960;27;63542;-77
2022/04/09 02:56:29;;;;;;;;;6.25;6.25;;;;;10.97;63.29;100889.53;5082766;28;61823;-77
2022/04/09 02:58:54;;;;;;;;;9.25;7.00;;;;;10.98;62.68;100893.94;5082387;28;62184;-77
2022/04/09 03:01:20;;;;;;;;;6.75;5.75;;;;;10.88;62.53;100911.00;5082548;28;61897;-77
2022/04/09 03:03:45;;;;;;;;;6.75;6.75;;;;;10.88;62.95;100917.97;5082330;28;61826;-77
2022/04/09 03:06:10;;;;;;;;;9.00;7.00;;;;;10.91;64.69;100915.50;5098579;27;62035;-77
2022/04/09 03:08:36;;;;;;;;;16.50;9.00;;;;;10.76;66.95;100924.47;5097988;27;62356;-77
2022/04/09 03:11:02;;;;;;;;;14.25;9.25;;;;;10.74;68.90;100925.25;5098127;27;61990;-77
2022/04/09 03:13:27;;;;;;;;;14.25;9.75;;;;;10.71;69.62;100915.50;5081684;28;62058;-77
2022/04/09 03:15:53;;;;;;;;;15.00;9.00;;;;;10.77;69.81;100921.00;5082657;28;62148;-76
2022/04/09 03:18:19;;;;;;;;;12.50;11.00;;;;;10.79;69.17;100919.34;5082527;28;61838;-77
2022/04/09 03:20:45;;;;;;;;;9.50;9.50;;;;;10.79;69.27;100928.97;5082610;28;61858;-77
2022/04/09 03:23:10;;;;;;;;;15.00;8.50;;;;;10.79;68.91;100929.84;5081920;28;61893;-76
2022/04/09 03:25:36;;;;;;;;;10.00;9.00;;;;;10.75;68.46;100932.28;5082771;28;62043;-76
2022/04/09 03:28:01;;;;;;;;;7.50;7.50;;;;;10.78;67.95;100935.94;5082004;28;61825;-76
2022/04/09 03:30:26;;;;;;;;;5.25;5.25;;;;;10.61;65.65;100936.91;5082741;28;61766;-76
2022/04/09 03:32:52;;;;;;;;;5.50;5.50;;;;;10.53;65.91;100943.50;5081612;28;62593;-76
2022/04/09 03:35:18;;;;;;;;;6.25;6.25;;;;;10.46;66.27;100950.22;5082490;28;62051;-76
2022/04/09 03:37:45;;;;;;;;;8.75;6.00;;;;;10.44;66.13;100959.72;5082233;28;62065;-76
2022/04/09 03:40:12;;;;;;;;;13.00;9.75;;;;;10.46;66.49;100952.84;5081729;28;61775;-76
2022/04/09 03:42:38;;;;;;;;;11.00;10.25;;;;;10.50;66.99;100956.50;5081283;28;62223;-77
2022/04/09 03:45:04;;;;;;;;;9.50;9.50;;;;;10.53;67.04;100954.91;5097822;27;61896;-77
2022/04/09 03:47:33;;;;;;;;;10.00;9.25;;;;;10.57;66.74;100956.84;5082296;28;61754;-76
2022/04/09 03:50:01;;;;;;;;;10.75;9.00;;;;;10.57;66.48;100963.84;5082426;28;61916;-76
2022/04/09 03:52:26;;;;;;;;;11.75;9.50;;;;;10.49;66.42;100965.19;5081672;28;61837;-76
2022/04/09 03:54:52;;;;;;;;;10.50;10.00;;;;;10.44;65.96;100964.97;5081912;28;61853;-76
2022/04/09 03:57:17;;;;;;;;;10.75;10.50;;;;;10.44;65.68;100970.22;5081736;28;61854;-77
2022/04/09 03:59:43;;;;;;;;;14.50;11.25;;;;;10.40;66.23;100981.41;5097751;27;61932;-76
2022/04/09 04:02:09;;;;;;;;;9.00;9.00;;;;;10.40;66.05;100971.78;5097109;27;63693;-76
2022/04/09 04:04:35;;;;;;;;;9.75;9.75;;;;;10.46;67.27;100972.94;5082809;28;61954;-77
2022/04/09 04:07:00;;;;;;;;;10.25;10.00;;;;;10.52;66.45;100971.50;5082110;27;61783;-76
2022/04/09 04:09:25;;;;;;;;;12.75;11.00;;;;;10.58;66.25;100970.88;5097368;27;61916;-77
2022/04/09 04:11:51;;;;;;;;;10.00;7.00;;;;;10.58;67.18;100968.25;5081209;28;62728;-76
2022/04/09 04:14:16;;;;;;;;;10.50;10.50;;;;;10.64;67.47;100960.66;5082676;28;62081;-77
2022/04/09 04:16:42;;;;;;;;;13.25;9.75;;;;;10.69;67.41;100967.03;5085183;28;61817;-77
2022/04/09 04:19:08;;;;;;;;;13.00;10.25;;;;;10.75;67.63;100966.41;5085741;28;61813;-76
2022/04/09 04:21:34;;;;;;;;;14.00;11.50;;;;;10.72;66.66;100954.03;5064553;28;61815;-77
2022/04/09 04:23:59;;;;;;;;;12.25;10.75;;;;;10.73;65.77;100953.25;5063529;28;61822;-76
2022/04/09 04:26:26;;;;;;;;;13.00;11.00;;;;;10.75;66.81;100961.16;5063491;28;62240;-77
2022/04/09 04:28:52;;;;;;;;;12.50;10.25;;;;;10.83;67.34;100965.94;5063918;28;62049;-76
2022/04/09 04:31:21;;;;;;;;;10.25;6.75;;;;;10.90;67.43;100958.34;5064361;28;61746;-76
2022/04/09 04:33:46;;;;;;;;;9.25;8.50;;;;;10.86;67.44;100954.66;5063673;28;62096;-76
2022/04/09 04:36:12;;;;;;;;;11.00;8.50;;;;;10.91;67.61;100971.56;5064830;28;61801;-77
2022/04/09 04:38:38;;;;;;;;;18.50;14.25;;;;;10.92;67.68;100962.81;5064689;28;61770;-77
2022/04/09 04:41:04;;;;;;;;;13.00;11.00;;;;;10.94;66.92;100968.16;5062277;28;64066;-77
2022/04/09 04:43:31;;;;;;;;;14.75;11.25;;;;;10.92;66.99;100964.56;5064672;28;61775;-76
2022/04/09 04:45:56;;;;;;;;;11.75;11.75;;;;;10.96;67.39;100966.50;5064913;28;61837;-77
2022/04/09 04:48:22;;;;;;;;;18.00;13.25;;;;;10.99;67.45;100971.88;5063122;28;61986;-76
2022/04/09 04:50:47;;;;;;;;;15.50;11.75;;;;;11.03;67.35;100979.06;5064177;28;62627;-77
2022/04/09 04:53:13;;;;;;;;;16.75;12.25;;;;;11.03;67.41;100982.63;5064131;28;62171;-76
2022/04/09 04:55:38;;;;;;;;;12.75;12.50;;;;;11.05;67.61;100983.59;5064791;28;62334;-77
2022/04/09 04:58:04;;;;;;;;;15.50;14.25;;;;;11.07;67.65;100986.28;5064677;28;62172;-77
2022/04/09 05:00:30;;;;;;;;;11.50;11.50;;;;;11.08;67.54;100989.81;5062345;28;65039;-76
2022/04/09 05:02:57;;;;;;;;;12.50;11.00;;;;;11.10;67.47;100993.38;5064343;28;62135;-77
2022/04/09 05:05:23;;;;;;;;;13.00;11.50;;;;;11.11;67.40;100989.94;5064426;28;61972;-76
2022/04/09 05:07:50;;;;;;;;;12.25;10.00;;;;;11.12;67.77;100990.03;5064382;28;62044;-76
2022/04/09 05:10:24;;;;;;;;;12.50;10.75;;;;;11.13;67.68;100991.81;5062373;28;64995;-76
2022/04/09 05:12:51;;;;;;;;;12.75;10.75;;;;;11.15;67.96;100989.25;5062795;28;62040;-76
2022/04/09 05:15:17;;;;;;;;;11.50;11.50;;;;;11.14;66.53;100983.13;5062653;28;61934;-77
2022/04/09 05:17:43;;;;;;;;;14.00;12.25;;;;;11.10;66.56;100989.06;5064413;28;61838;-77
2022/04/09 05:20:11;;;;;;;;;14.25;13.00;;;;;11.04;65.56;100989.66;5075214;28;61817;-77
2022/04/09 05:22:38;;;;;;;;;15.00;12.75;;;;;11.04;66.67;100994.91;5100008;27;61768;-76
2022/04/09 05:25:04;;;;;;;;;16.00;14.50;;;;;11.16;66.86;100996.28;5083811;27;61781;-76
2022/04/09 05:27:30;;;;;;;;;14.50;12.25;;;;;11.17;65.93;101009.50;5084254;27;61784;-77
2022/04/09 05:29:56;;;;;;;;;14.00;12.50;;;;;11.13;66.52;101015.44;5082333;28;65060;-76
2022/04/09 05:32:22;;;;;;;;;15.25;11.25;;;;;11.05;64.62;101014.19;5100041;27;62189;-77
2022/04/09 05:34:48;;;;;;;;;9.25;7.50;;;;;10.96;63.66;101013.78;5084326;27;61990;-76
2022/04/09 05:37:14;;;;;;;;;18.00;9.50;;;;;10.88;63.50;101020.41;5084302;28;61813;-77
2022/04/09 05:39:41;;;;;;;;;15.00;9.50;;;;;10.87;65.14;101019.50;5082740;27;61833;-75
2022/04/09 05:42:07;;;;;;;;;10.75;10.75;;;;;10.94;66.60;101020.69;5083941;27;62153;-77
2022/04/09 05:44:32;;;;;;;;;10.50;9.25;;;;;10.97;66.03;101023.47;5100164;27;61804;-77
2022/04/09 05:46:59;;;;;;;;;11.25;11.25;;;;;11.01;66.12;101028.94;5084410;27;61923;-77
2022/04/09 05:49:25;;;;;;;;;16.25;15.00;;;;;11.07;66.25;101030.94;5083210;27;61825;-77
2022/04/09 05:51:50;;;;;;;;;13.00;13.00;;;;;11.13;66.59;101030.31;5084049;27;62163;-77
2022/04/09 05:54:16;;;;;;;;;15.25;12.25;;;;;11.18;66.80;101026.16;5083742;27;62121;-77
2022/04/09 05:56:41;;;;;;;;;13.50;10.00;;;;;11.21;66.65;101019.34;5083260;27;61786;-77
2022/04/09 05:59:07;;;;;;;;;11.00;9.00;;;;;11.26;66.35;101027.41;5082806;27;62751;-77
2022/04/09 06:01:33;;;;;;;;;12.00;8.25;;;;;11.30;66.39;101020.59;5083037;27;61845;-77
2022/04/09 06:03:58;;;;;;;;;9.00;9.00;;;;;11.34;66.37;101026.03;5083446;28;62010;-77
2022/04/09 06:06:24;;;;;;;;;10.00;9.75;;;;;11.37;66.11;101025.28;5099023;27;61966;-77
2022/04/09 06:08:49;;;;;;;;;10.75;9.50;;;;;11.38;66.32;101030.59;5082022;28;61859;-77
2022/04/09 06:11:15;;;;;;;;;12.50;10.25;;;;;11.42;66.39;101043.06;5085256;28;62072;-78
2022/04/09 06:13:41;;;;;;;;;10.50;8.75;;;;;11.42;66.19;101044.81;5098776;27;61741;-77
2022/04/09 06:16:08;;;;;;;;;13.25;11.00;;;;;11.43;66.15;101043.94;5083551;27;61920;-78
2022/04/09 06:18:38;;;;;;;;;10.75;9.75;;;;;11.46;66.42;101050.25;5082347;27;61820;-78
2022/04/09 06:21:06;;;;;;;;;14.75;10.00;;;;;11.52;65.96;101054.88;5099289;27;62082;-77
2022/04/09 06:23:31;;;;;;;;;11.00;10.50;;;;;11.55;65.63;101067.28;5083509;28;62222;-78
2022/04/09 06:25:57;;;;;;;;;9.50;7.75;;;;;11.55;65.12;101056.75;5083482;27;61870;-76
2022/04/09 06:28:22;;;;;;;;;7.75;7.00;;;;;11.58;64.63;101062.16;5082420;27;61837;-79
2022/04/09 06:30:48;;;;;;;;;11.75;9.50;;;;;11.60;63.57;101068.38;5083063;28;61810;-78
2022/04/09 06:33:13;;;;;;;;;9.50;8.50;;;;;11.51;63.37;101068.84;5083067;27;62407;-78
2022/04/09 06:35:38;;;;;;;;;11.50;9.50;;;;;11.54;65.06;101078.59;5097152;27;62642;-78
2022/04/09 06:38:04;;;;;;;;;14.75;12.25;;;;;11.58;65.70;101072.66;5062566;28;64784;-77
2022/04/09 06:40:30;;;;;;;;;14.00;12.25;;;;;11.61;64.67;101086.84;5082452;28;61841;-77
2022/04/09 06:42:56;;;;;;;;;16.75;11.50;;;;;11.58;63.04;101089.31;5080973;28;63011;-78
2022/04/09 06:45:22;;;;;;;;;12.00;9.75;;;;;11.52;62.92;101085.53;5079673;28;61951;-78
2022/04/09 06:47:47;;;;;;;;;9.25;7.00;;;;;11.59;63.65;101088.50;5080292;28;62150;-78
2022/04/09 06:50:13;;;;;;;;;16.25;14.00;;;;;11.72;64.23;101094.31;5080544;27;62195;-81
2022/04/09 06:52:40;;;;;;;;;7.75;7.25;;;;;11.83;64.32;101093.06;5081219;27;62130;-75
2022/04/09 06:55:09;;;;;;;;;12.00;8.50;;;;;11.92;64.14;101098.75;5088403;27;61834;-75
2022/04/09 06:57:35;;;;;;;;;10.00;6.00;;;;;12.03;64.64;101107.13;5094117;27;64809;-77
2022/04/09 07:00:03;;;;;;;;;13.50;13.50;;;;;12.08;64.64;101100.31;5082308;28;61782;-75
2022/04/09 07:02:29;;;;;;;;;11.75;11.25;;;;;12.16;64.86;101104.19;5082324;27;61667;-75
2022/04/09 07:04:54;;;;;;;;;14.00;12.25;;;;;12.21;64.14;101112.25;5080879;28;61783;-75
2022/04/09 07:07:25;;;;;;;;;17.25;14.00;;;;;12.31;64.03;101113.56;5080937;28;62022;-73
2022/04/09 07:09:55;;;;;;;;;14.75;11.75;;;;;12.37;64.14;101112.09;5081257;28;62060;-75
2022/04/09 07:12:22;;;;;;;;;11.50;8.75;;;;;12.34;60.05;101122.50;5080947;28;62100;-75
2022/04/09 07:14:48;;;;;;;;;12.00;11.00;;;;;12.26;60.36;101122.16;5081589;28;61748;-75
2022/04/09 07:17:20;;;;;;;;;11.75;11.75;;;;;12.18;59.38;101118.31;5088896;27;64795;-75
2022/04/09 07:19:45;;;;;;;;;15.75;10.00;;;;;12.14;60.62;101126.91;5079833;27;61823;-79
2022/04/09 07:22:11;;;;;;;;;11.75;10.75;;;;;12.11;59.94;101132.03;5080721;27;62543;-78
2022/04/09 07:24:36;;;;;;;;;12.75;12.00;;;;;12.02;60.84;101132.53;5080384;28;62115;-78
2022/04/09 07:27:02;;;;;;;;;13.25;11.00;;;;;12.16;59.92;101129.59;5078711;28;61812;-78
2022/04/09 07:29:28;;;;;;;;;11.75;11.25;;;;;12.20;60.27;101128.91;5080101;28;62018;-78
2022/04/09 07:31:53;;;;;;;;;12.25;9.00;;;;;12.20;59.59;101132.44;5077218;28;61919;-78
2022/04/09 07:34:18;;;;;;;;;12.50;10.75;;;;;12.17;59.79;101134.94;5081137;28;62491;-78
2022/04/09 07:36:44;;;;;;;;;15.00;11.25;;;;;12.20;59.71;101142.97;5081485;27;61876;-79
2022/04/09 07:39:09;;;;;;;;;14.75;10.50;;;;;12.20;59.32;101144.69;5082158;27;61821;-78
2022/04/09 07:41:35;;;;;;;;;13.00;8.75;;;;;11.99;59.51;101145.53;5082209;27;61812;-79
2022/04/09 07:44:00;;;;;;;;;11.00;9.50;;;;;11.96;59.80;101152.41;5082173;27;62018;-79
2022/04/09 07:46:26;;;;;;;;;10.75;9.75;;;;;11.89;58.89;101155.59;5081819;28;61768;-78
2022/04/09 07:48:51;;;;;;;;;11.00;8.00;;;;;11.98;60.32;101149.00;5081336;28;61843;-79
2022/04/09 07:51:16;;;;;;;;;11.25;10.50;;;;;11.97;58.89;101148.94;5098148;27;62391;-79
2022/04/09 07:53:42;;;;;;;;;11.50;10.00;;;;;11.93;59.12;101157.53;5082144;28;62238;-79
2022/04/09 07:56:08;;;;;;;;;11.25;11.00;;;;;11.92;59.10;101158.38;5080891;28;62563;-79
2022/04/09 07:58:33;;;;;;;;;10.00;10.00;;;;;12.00;59.86;101170.13;5082272;28;61765;-79
2022/04/09 08:00:59;;;;;;;;;8.25;8.25;;;;;12.09;59.56;101161.75;5081527;28;61984;-79
2022/04/09 08:03:24;;;;;;;;;10.00;9.50;;;;;12.09;58.07;101167.91;5081971;28;62669;-78
2022/04/09 08:05:50;;;;;;;;;11.00;8.00;;;;;11.99;58.17;101161.31;5096835;27;63742;-79
2022/04/09 08:08:15;;;;;;;;;13.25;11.00;;;;;12.21;59.22;101165.81;5081772;28;61971;-78
2022/04/09 08:10:41;;;;;;;;;8.25;7.50;;;;;12.30;57.95;101167.03;5082019;28;61685;-78
2022/04/09 08:13:06;;;;;;;;;12.75;5.50;;;;;12.16;55.75;101177.88;5081923;28;61830;-79
2022/04/09 08:15:33;;;;;;;;;5.00;5.00;;;;;12.28;56.49;101174.88;5081406;28;62860;-79
2022/04/09 08:17:58;;;;;;;;;9.00;5.75;;;;;12.34;56.38;101176.88;5081615;28;62056;-79
2022/04/09 08:20:24;;;;;;;;;6.25;6.00;;;;;12.35;55.88;101170.78;5077773;28;62123;-79
2022/04/09 08:22:50;;;;;;;;;6.75;3.00;;;;;12.38;56.37;101177.09;5082089;28;62003;-79
2022/04/09 08:25:16;;;;;;;;;6.00;6.00;;;;;12.37;55.23;101188.44;5080093;28;64677;-79
2022/04/09 08:27:43;;;;;;;;;7.50;6.50;;;;;12.44;55.77;101189.59;5081531;27;61905;-79
2022/04/09 08:30:10;;;;;;;;;8.00;8.00;;;;;12.50;55.30;101192.50;5081661;28;61738;-79
2022/04/09 08:32:36;;;;;;;;;7.25;6.75;;;;;12.46;54.82;101202.00;5082086;27;61741;-79
2022/04/09 08:35:02;;;;;;;;;8.50;6.00;;;;;12.41;55.27;101202.66;5096348;27;63578;-79
2022/04/09 08:37:28;;;;;;;;;5.25;5.25;;;;;12.39;55.37;101199.03;5081606;27;61763;-79
2022/04/09 08:39:54;;;;;;;;;7.50;6.50;;;;;12.41;54.61;101208.81;5081510;27;61879;-79
2022/04/09 08:42:21;;;;;;;;;7.75;7.75;;;;;12.29;54.97;101221.41;5081205;27;61809;-79
2022/04/09 08:44:47;;;;;;;;;8.00;6.25;;;;;12.43;54.70;101220.31;5080719;28;62208;-79
2022/04/09 08:47:15;;;;;;;;;5.75;5.75;;;;;12.23;54.25;101232.59;5097004;27;62017;-79
2022/04/09 08:49:45;;;;;;;;;8.00;5.50;;;;;12.26;55.25;101229.19;5079970;28;61999;-79
2022/04/09 08:52:11;;;;;;;;;6.50;5.25;;;;;12.24;54.41;101234.38;5081596;27;61842;-79
2022/04/09 08:54:37;;;;;;;;;7.00;6.75;;;;;12.22;54.66;101245.69;5081126;27;62025;-79
2022/04/09 08:57:04;;;;;;;;;6.75;2.50;;;;;12.21;53.46;101242.16;5081026;28;62068;-79
2022/04/09 08:59:30;;;;;;;;;7.00;6.00;;;;;12.25;53.82;101259.88;5081136;27;61826;-79
2022/04/09 09:01:55;;;;;;;;;9.00;6.00;;;;;12.42;54.00;101247.44;5084933;27;61869;-79
2022/04/09 09:04:21;;;;;;;;;2.50;2.50;;;;;12.35;52.54;101245.38;5084156;27;61721;-79
2022/04/09 09:06:46;;;;;;;;;5.25;5.25;;;;;12.58;53.02;101230.59;5084743;27;61779;-78
2022/04/09 09:09:26;;;;;;;;;6.50;5.75;;;;;12.72;53.33;101240.81;5082792;28;62544;-78
2022/04/09 09:11:51;;;;;;;;;5.25;5.25;;;;;12.84;52.52;101239.63;5084850;27;62686;-78
2022/04/09 09:14:28;;;;;;;;;2.25;2.25;;;;;13.14;52.63;101241.72;5083783;27;61697;-78
2022/04/09 09:16:55;;;;;;;;;7.00;5.25;;;;;13.21;51.49;101242.88;5084403;27;61801;-78
2022/04/09 09:19:21;;;;;;;;;5.75;3.75;;;;;13.26;51.44;101243.97;5084276;27;61737;-78
2022/04/09 09:21:54;;;;;;;;;8.00;5.00;;;;;13.41;50.73;101249.00;5084822;28;61909;-78
2022/04/09 09:24:20;;;;;;;;;3.75;3.75;;;;;13.61;51.27;101255.09;5082386;28;64536;-78
2022/04/09 09:26:55;;;;;;;;;6.50;6.50;;;;;13.68;51.09;101257.13;5084415;27;61872;-78
2022/04/09 09:29:28;;;;;;;;;6.00;6.00;;;;;13.72;51.41;101260.78;5083595;27;62218;-78
2022/04/09 09:32:00;;;;;;;;;8.25;6.25;;;;;13.67;49.97;101255.34;5101868;27;61901;-77
2022/04/09 09:34:26;;;;;;;;;6.75;6.50;;;;;13.82;51.26;101269.13;5082803;28;63624;-77
2022/04/09 09:36:51;;;;;;;;;7.75;7.50;;;;;13.87;50.16;101266.66;5084273;27;61811;-77
2022/04/09 09:39:22;;;;;;;;;6.75;6.75;;;;;13.65;49.78;101275.47;5083847;28;62129;-77
2022/04/09 09:41:49;;;;;;;;;7.50;7.00;;;;;13.63;49.72;101271.88;5082910;28;61945;-77
2022/04/09 09:44:16;;;;;;;;;6.75;5.00;;;;;13.88;50.34;101276.34;5082207;27;61707;-78
2022/04/09 09:46:43;;;;;;;;;3.50;3.50;;;;;14.10;49.16;101280.72;5084402;27;61827;-78
2022/04/09 09:49:08;;;;;;;;;9.25;6.00;;;;;14.11;49.22;101296.59;5082647;28;61807;-78
2022/04/09 09:51:34;;;;;;;;;6.00;4.50;;;;;14.19;48.54;101285.47;5083068;28;61998;-78
2022/04/09 09:54:10;;;;;;;;;11.25;6.00;;;;;14.28;50.06;101291.06;5083489;28;62800;-78
2022/04/09 09:56:42;;;;;;;;;6.00;6.00;;;;;14.32;48.29;101307.09;5083470;28;61872;-77
2022/04/09 09:59:12;;;;;;;;;8.50;6.00;;;;;14.14;48.86;101305.47;5095333;27;61814;-77
2022/04/09 10:01:43;;;;;;;;;7.00;7.00;;;;;14.02;49.31;101312.09;5082290;28;62104;-77
2022/04/09 10:04:12;;;;;;;;;8.50;6.50;;;;;13.98;49.57;101318.09;5089225;27;63884;-78
2022/04/09 10:06:38;;;;;;;;;6.25;6.25;;;;;13.90;49.90;101322.16;5082550;27;61763;-77
2022/04/09 10:09:06;;;;;;;;;5.75;4.00;;;;;13.95;50.89;101330.31;5082111;27;61903;-77
2022/04/09 10:11:39;;;;;;;;;5.00;3.75;;;;;13.95;49.49;101325.91;5082021;28;61833;-78
2022/04/09 10:14:05;;;;;;;;;6.25;4.50;;;;;13.99;50.66;101329.56;5079107;28;62620;-78
2022/04/09 10:16:34;;;;;;;;;20.25;18.00;;;;;14.04;50.61;101331.53;5080886;28;61969;-77
2022/04/09 10:19:02;;;;;;;;;12.00;10.25;;;;;14.11;52.12;101335.31;5082185;27;62085;-78
2022/04/09 10:21:30;;;;;;;;;6.75;6.75;;;;;14.03;50.70;101335.03;5081951;27;61829;-79
2022/04/09 10:23:58;;;;;;;;;3.75;3.75;;;;;13.89;50.46;101342.38;5080518;27;62947;-78
2022/04/09 10:26:26;;;;;;;;;4.00;4.00;;;;;13.78;50.33;101342.81;5080003;28;61992;-76
2022/04/09 10:28:51;;;;;;;;;7.00;7.00;;;;;13.80;51.42;101349.94;5082365;27;61760;-76
2022/04/09 10:31:23;;;;;;;;;8.00;7.75;;;;;13.95;51.16;101348.78;5082216;27;61815;-78
2022/04/09 10:33:59;;;;;;;;;10.25;5.50;;;;;14.08;50.46;101357.22;5081908;28;62610;-77
2022/04/09 10:36:43;;;;;;;;;7.75;4.00;;;;;14.13;48.86;101360.03;5077037;28;61919;-77
2022/04/09 10:39:25;;;;;;;;;8.25;7.00;;;;;14.17;49.54;101361.06;5080318;28;62116;-79
2022/04/09 10:41:54;;;;;;;;;8.00;5.50;;;;;14.23;49.98;101363.94;5081700;27;61916;-81
2022/04/09 10:44:45;;;;;;;;;9.50;6.25;;;;;14.55;49.27;101362.56;5081762;27;63038;-77
2022/04/09 10:47:16;;;;;;;;;5.50;5.50;;;;;14.77;48.92;101372.19;5062752;28;61795;-79
2022/04/09 10:50:02;;;;;;;;;7.25;4.00;;;;;14.87;47.26;101368.16;5061165;28;61849;-77
2022/04/09 10:52:30;;;;;;;;;14.75;10.75;;;;;14.83;47.71;101368.88;5061101;28;62187;-78
2022/04/09 10:55:31;;;;;;;;;7.50;6.50;;;;;14.76;47.51;101364.19;5061965;28;61928;-78
2022/04/09 10:58:01;;;;;;;;;8.25;5.00;;;;;14.85;46.91;101364.53;5019751;28;61869;-79
2022/04/09 11:00:30;;;;;;;;;8.25;6.75;;;;;15.11;47.38;101365.47;5002845;28;61934;-79
2022/04/09 11:03:11;;;;;;;;;5.00;5.00;;;;;15.27;46.09;101369.53;5019245;28;61784;-79
2022/04/09 11:05:39;;;;;;;;;7.75;6.75;;;;;15.49;46.60;101368.53;5018949;28;64980;-79
2022/04/09 11:08:09;;;;;;;;;6.50;6.50;;;;;15.71;44.40;101371.06;5019720;28;61807;-79
2022/04/09 11:10:35;;;;;;;;;6.00;6.00;;;;;15.73;44.12;101373.78;5021588;28;61843;-79
2022/04/09 11:13:03;;;;;;;;;5.25;5.25;;;;;15.92;44.10;101383.22;5028060;28;62185;-79
2022/04/09 11:15:29;;;;;;;;;10.00;10.00;;;;;16.25;46.17;101372.75;5026861;28;62547;-79
2022/04/09 11:18:03;;;;;;;;;6.75;6.50;;;;;16.53;45.48;101369.19;5027429;28;62952;-79